Sertar, China
Current Conditions -  °F | °C
As of 3:00 PM on Friday 28 Nov 2014 (Local Time) from ZUUU Reporting Station
Haze Haze  
Wind Chill: 61°   Ceiling: Unl
Heat Index: 61°   Visibility: 3mi
Dew Point: 45°   Wind: 2mph
Humidity: 55%   Direction: NA
Pressure: 29.85"   Gusts: NA
Location:  32.28°N, 100.33°E
Report Text: ZUUU 280700Z VRB01MPS 5000 HZ FEW030 16/07 Q1011 NOSIG
Loading
Personal Weather Stations






























Interactive Weather Map New forecast layout! Learn more

10-Day Weather Forecast

Advertisements
Track Severe Weather on mobile